createdAt,value
2019-03-06T00:01:28.721Z,4.40
2019-03-06T00:03:58.245Z,4.40
2019-03-06T00:06:27.799Z,4.40
2019-03-06T00:08:57.331Z,4.40
2019-03-06T00:11:26.949Z,4.30
2019-03-06T00:13:56.467Z,4.40
2019-03-06T00:16:28.966Z,4.40
2019-03-06T00:18:58.553Z,4.40
2019-03-06T00:21:28.303Z,4.50
2019-03-06T00:23:57.870Z,4.50
2019-03-06T00:26:28.000Z,4.50
2019-03-06T00:28:57.445Z,4.50
2019-03-06T00:31:26.930Z,4.50
2019-03-06T00:33:56.503Z,4.60
2019-03-06T00:36:28.850Z,4.60
2019-03-06T00:38:58.392Z,4.70
2019-03-06T00:41:39.164Z,4.70
2019-03-06T00:44:08.731Z,4.70
2019-03-06T00:46:38.200Z,4.80
2019-03-06T00:49:07.835Z,4.80
2019-03-06T00:51:37.445Z,4.80
2019-03-06T00:54:06.957Z,4.80
2019-03-06T00:56:36.506Z,4.80
2019-03-06T00:59:06.282Z,4.80
2019-03-06T01:01:35.888Z,4.80
2019-03-06T01:04:05.522Z,4.80
2019-03-06T01:06:35.344Z,4.80
2019-03-06T01:09:06.906Z,4.80
2019-03-06T01:11:37.056Z,4.80
2019-03-06T01:14:06.567Z,4.90
2019-03-06T01:16:36.275Z,4.90
2019-03-06T01:19:05.913Z,4.90
2019-03-06T01:21:35.574Z,5.00
2019-03-06T01:24:05.246Z,5.10
2019-03-06T01:26:34.830Z,5.10
2019-03-06T01:29:04.374Z,5.20
2019-03-06T01:31:34.001Z,5.30
2019-03-06T01:34:28.511Z,5.30
2019-03-06T01:37:05.319Z,5.40
2019-03-06T01:40:03.060Z,5.50
2019-03-06T01:42:51.877Z,5.50
2019-03-06T01:45:21.413Z,5.50
2019-03-06T01:47:50.929Z,5.60
2019-03-06T01:50:20.632Z,5.60
2019-03-06T01:52:50.212Z,5.70
2019-03-06T01:55:19.739Z,5.70
2019-03-06T01:57:49.231Z,5.70
2019-03-06T02:00:19.248Z,5.70
2019-03-06T02:02:48.775Z,5.70
2019-03-06T02:05:18.616Z,5.80
2019-03-06T02:07:48.152Z,5.70
2019-03-06T02:10:17.862Z,5.80
2019-03-06T02:12:47.393Z,5.80
2019-03-06T02:15:17.895Z,5.80
2019-03-06T02:17:47.399Z,5.80
2019-03-06T02:20:17.379Z,5.80
2019-03-06T02:22:47.139Z,5.80
2019-03-06T02:25:18.091Z,5.80
2019-03-06T02:27:48.479Z,5.90
2019-03-06T02:30:19.932Z,5.80
2019-03-06T02:32:49.537Z,5.80
2019-03-06T02:35:19.031Z,5.80
2019-03-06T02:37:48.567Z,5.80
2019-03-06T02:40:18.100Z,5.80
2019-03-06T02:42:47.672Z,5.70
2019-03-06T02:45:17.476Z,5.80
2019-03-06T02:47:47.552Z,5.80
2019-03-06T02:50:17.138Z,5.70
2019-03-06T02:52:48.862Z,5.80
2019-03-06T02:55:18.215Z,5.80
2019-03-06T02:58:04.639Z,5.80
2019-03-06T03:00:48.109Z,5.70
2019-03-06T03:03:35.112Z,5.70
2019-03-06T03:06:09.221Z,5.80
2019-03-06T03:08:39.279Z,5.80
2019-03-06T03:11:09.019Z,5.70
2019-03-06T03:13:38.878Z,5.70
2019-03-06T03:16:08.387Z,5.70
2019-03-06T03:18:38.977Z,5.70
2019-03-06T03:21:08.546Z,5.70
2019-03-06T03:23:38.045Z,5.70
2019-03-06T03:26:07.548Z,5.70
2019-03-06T03:28:37.157Z,5.60
2019-03-06T03:31:07.980Z,5.70
2019-03-06T03:33:37.476Z,5.60
2019-03-06T03:36:06.985Z,5.60
2019-03-06T03:38:36.567Z,5.60
2019-03-06T03:41:06.639Z,5.50
2019-03-06T03:43:37.052Z,5.60
2019-03-06T03:46:06.547Z,5.60
2019-03-06T03:48:36.083Z,5.50
2019-03-06T03:51:06.090Z,5.50
2019-03-06T03:53:36.045Z,5.50
2019-03-06T03:56:05.939Z,5.60
2019-03-06T03:58:38.627Z,5.60
2019-03-06T04:01:08.131Z,5.60
2019-03-06T04:03:37.684Z,5.60
2019-03-06T04:06:07.200Z,5.60
2019-03-06T04:08:36.997Z,5.60
2019-03-06T04:11:06.554Z,5.60
2019-03-06T04:13:36.079Z,5.60
2019-03-06T04:16:05.734Z,5.60
2019-03-06T04:18:36.116Z,5.60
2019-03-06T04:21:05.895Z,5.60
2019-03-06T04:23:35.550Z,5.60
2019-03-06T04:26:05.030Z,5.60
2019-03-06T04:28:34.765Z,5.60
2019-03-06T04:31:04.292Z,5.60
2019-03-06T04:33:33.821Z,5.60
2019-03-06T04:36:03.323Z,5.60
2019-03-06T04:38:32.823Z,5.60
2019-03-06T04:41:02.362Z,5.60
2019-03-06T04:43:31.922Z,5.70
2019-03-06T04:46:01.451Z,5.70
2019-03-06T04:48:30.980Z,5.80
2019-03-06T04:51:00.637Z,5.80
2019-03-06T04:53:30.253Z,5.70
2019-03-06T04:55:59.742Z,5.70
2019-03-06T04:58:30.305Z,5.80
2019-03-06T05:00:59.916Z,5.90
2019-03-06T05:03:29.421Z,5.90
2019-03-06T05:05:59.407Z,5.90
2019-03-06T05:08:28.919Z,5.80
2019-03-06T05:10:58.505Z,5.90
2019-03-06T05:13:28.015Z,5.90
2019-03-06T05:15:57.659Z,5.90
2019-03-06T05:18:48.172Z,5.90
2019-03-06T05:21:17.768Z,5.90
2019-03-06T05:23:47.279Z,5.90
2019-03-06T05:26:16.779Z,6.00
2019-03-06T05:28:46.398Z,6.00
2019-03-06T05:31:15.867Z,5.90
2019-03-06T05:33:48.054Z,6.00
2019-03-06T05:37:10.783Z,6.00
2019-03-06T05:39:40.859Z,6.00
2019-03-06T05:42:11.416Z,6.00
2019-03-06T05:44:41.250Z,6.00
2019-03-06T05:47:10.706Z,6.00
2019-03-06T05:49:40.355Z,6.00
2019-03-06T05:52:09.932Z,6.10
2019-03-06T05:54:39.474Z,6.10
2019-03-06T05:57:08.990Z,6.20
2019-03-06T05:59:38.715Z,6.20
2019-03-06T06:02:08.212Z,6.20
2019-03-06T06:04:39.850Z,6.20
2019-03-06T06:07:09.674Z,6.30
2019-03-06T06:09:39.508Z,6.20
2019-03-06T06:12:09.009Z,6.30
2019-03-06T06:14:38.653Z,6.30
2019-03-06T06:17:08.243Z,6.30
2019-03-06T06:19:38.345Z,6.30
2019-03-06T06:22:16.249Z,6.40
2019-03-06T06:24:45.759Z,6.40
2019-03-06T06:27:15.394Z,6.40
2019-03-06T06:29:45.230Z,6.50
2019-03-06T06:32:14.723Z,6.50
2019-03-06T06:34:44.272Z,6.50
2019-03-06T06:37:13.768Z,6.60
2019-03-06T06:39:43.827Z,6.60
2019-03-06T06:42:13.598Z,6.60
2019-03-06T06:44:43.656Z,6.60
2019-03-06T06:47:13.360Z,6.60
2019-03-06T06:49:42.991Z,6.60
2019-03-06T06:52:41.846Z,6.60
2019-03-06T06:55:19.449Z,6.60
2019-03-06T06:58:15.962Z,6.70
2019-03-06T07:01:41.949Z,6.80
2019-03-06T07:05:01.327Z,6.90
2019-03-06T07:07:49.881Z,7.00
2019-03-06T07:10:37.335Z,7.10
2019-03-06T07:13:13.131Z,7.10
2019-03-06T07:16:02.449Z,7.10
2019-03-06T07:18:50.151Z,7.20
2019-03-06T07:21:28.604Z,7.30
2019-03-06T07:24:15.116Z,7.30
2019-03-06T07:27:09.746Z,7.40
2019-03-06T07:29:45.109Z,7.50
2019-03-06T07:32:36.669Z,7.60
2019-03-06T07:36:16.323Z,7.90
2019-03-06T07:38:45.935Z,7.80
2019-03-06T07:41:33.260Z,8.70
2019-03-06T07:44:30.163Z,8.70
2019-03-06T07:47:17.610Z,8.50
2019-03-06T07:49:59.799Z,8.50
2019-03-06T07:52:37.284Z,8.30
2019-03-06T07:55:36.083Z,8.30
2019-03-06T07:58:41.438Z,8.20
2019-03-06T08:01:16.958Z,8.20
2019-03-06T08:04:12.615Z,8.20
2019-03-06T08:06:47.759Z,8.30
2019-03-06T08:09:20.577Z,8.30
2019-03-06T08:12:11.513Z,8.30
2019-03-06T08:14:53.108Z,8.40
2019-03-06T08:17:47.267Z,8.50
2019-03-06T08:20:41.845Z,8.50
2019-03-06T08:23:39.441Z,8.60
2019-03-06T08:26:09.157Z,8.60
2019-03-06T08:28:38.647Z,8.70
2019-03-06T08:31:17.550Z,8.80
2019-03-06T08:33:47.141Z,8.80
2019-03-06T08:36:16.837Z,8.90
2019-03-06T08:38:46.344Z,8.90
2019-03-06T08:41:16.231Z,8.90
2019-03-06T08:43:45.833Z,9.00
2019-03-06T08:46:34.322Z,9.10
2019-03-06T08:49:38.076Z,9.20
2019-03-06T08:52:32.847Z,9.30
2019-03-06T08:55:17.707Z,9.30
2019-03-06T08:58:09.413Z,9.30
2019-03-06T09:00:56.586Z,9.40
2019-03-06T09:03:58.207Z,9.40
2019-03-06T09:07:02.258Z,9.50
2019-03-06T09:09:42.930Z,9.50
2019-03-06T09:12:34.385Z,9.70
2019-03-06T09:15:26.280Z,9.80
2019-03-06T09:18:09.472Z,9.80
2019-03-06T09:20:50.343Z,9.90
2019-03-06T09:23:48.112Z,10.10
2019-03-06T09:26:35.019Z,10.10
2019-03-06T09:29:26.672Z,10.10
2019-03-06T09:32:04.915Z,10.10
2019-03-06T09:34:53.086Z,10.20
2019-03-06T09:37:40.561Z,10.30
2019-03-06T09:40:31.900Z,10.50
2019-03-06T09:43:32.348Z,10.60
2019-03-06T09:46:19.910Z,10.60
2019-03-06T09:48:58.767Z,10.70
2019-03-06T09:51:45.615Z,11.00
2019-03-06T09:54:26.482Z,11.10
2019-03-06T09:57:19.067Z,11.30
2019-03-06T10:00:10.607Z,11.30
2019-03-06T10:02:57.835Z,11.30
2019-03-06T10:05:49.533Z,11.40
2019-03-06T10:08:31.838Z,11.40
2019-03-06T10:11:10.974Z,11.40
2019-03-06T10:13:54.366Z,11.60
2019-03-06T10:16:49.205Z,11.60
2019-03-06T10:19:24.235Z,11.70
2019-03-06T10:21:53.903Z,11.80
2019-03-06T10:27:12.359Z,12.00
2019-03-06T10:29:42.012Z,12.00
2019-03-06T10:32:11.556Z,12.00
2019-03-06T10:34:41.085Z,12.10
2019-03-06T10:37:10.645Z,12.20
2019-03-06T10:39:40.664Z,12.40
2019-03-06T10:42:10.327Z,12.50
2019-03-06T10:44:40.343Z,12.60
2019-03-06T10:47:09.882Z,12.60
2019-03-06T10:49:39.740Z,12.60
2019-03-06T10:52:09.347Z,12.70
2019-03-06T10:54:44.680Z,12.80
2019-03-06T10:57:11.872Z,12.80
2019-03-06T10:59:41.794Z,13.00
2019-03-06T11:02:11.346Z,13.00
2019-03-06T11:04:58.586Z,13.00
2019-03-06T11:07:28.326Z,13.10
2019-03-06T11:09:58.015Z,13.10
2019-03-06T11:12:30.584Z,13.10
2019-03-06T11:15:00.302Z,13.20
2019-03-06T11:17:30.364Z,13.30
2019-03-06T11:20:00.319Z,13.20
2019-03-06T11:22:30.001Z,13.40
2019-03-06T11:24:59.607Z,13.40
2019-03-06T11:27:29.212Z,13.60
2019-03-06T11:29:58.818Z,13.50
2019-03-06T11:32:28.982Z,13.60
2019-03-06T11:34:58.516Z,13.60
2019-03-06T11:37:28.173Z,13.60
2019-03-06T11:39:57.794Z,13.60
2019-03-06T11:42:27.479Z,13.70
2019-03-06T11:44:57.005Z,13.80
2019-03-06T11:47:26.900Z,13.90
2019-03-06T11:49:56.446Z,14.10
2019-03-06T11:52:26.137Z,14.10
2019-03-06T11:54:55.857Z,14.30
2019-03-06T11:57:25.421Z,14.40
2019-03-06T11:59:55.102Z,14.50
2019-03-06T12:02:24.927Z,14.50
2019-03-06T12:04:54.544Z,14.40
2019-03-06T12:07:24.263Z,14.30
2019-03-06T12:09:53.843Z,14.30
2019-03-06T12:12:23.544Z,14.40
2019-03-06T12:14:53.103Z,14.50
2019-03-06T12:17:22.640Z,14.40
2019-03-06T12:19:52.266Z,14.40
2019-03-06T12:22:21.890Z,14.40
2019-03-06T12:24:51.647Z,14.50
2019-03-06T12:27:21.158Z,14.50
2019-03-06T12:29:50.805Z,14.60
2019-03-06T12:32:20.394Z,14.70
2019-03-06T12:34:50.217Z,14.80
2019-03-06T12:37:19.806Z,14.90
2019-03-06T12:39:49.657Z,14.90
2019-03-06T12:42:19.483Z,14.90
2019-03-06T12:44:49.048Z,14.90
2019-03-06T12:47:18.778Z,15.10
2019-03-06T12:49:48.340Z,15.10
2019-03-06T12:52:17.981Z,15.10
2019-03-06T12:54:47.628Z,15.00
2019-03-06T12:57:17.195Z,15.00
2019-03-06T12:59:46.765Z,15.00
2019-03-06T13:02:16.342Z,15.10
2019-03-06T13:04:46.056Z,15.30
2019-03-06T13:07:18.073Z,15.20
2019-03-06T13:09:46.848Z,15.10
2019-03-06T13:12:16.513Z,15.10
2019-03-06T13:14:46.167Z,15.10
2019-03-06T13:17:15.602Z,15.10
2019-03-06T13:19:45.252Z,14.90
2019-03-06T13:22:14.779Z,15.00
2019-03-06T13:24:44.729Z,14.90
2019-03-06T13:27:14.198Z,14.90
2019-03-06T13:29:45.514Z,15.10
2019-03-06T13:32:15.179Z,15.10
2019-03-06T13:34:50.775Z,15.00
2019-03-06T13:37:19.837Z,15.00
2019-03-06T13:39:49.414Z,14.90
2019-03-06T13:42:19.084Z,14.80
2019-03-06T13:44:48.762Z,14.90
2019-03-06T13:47:18.528Z,14.80
2019-03-06T13:49:48.185Z,14.80
2019-03-06T13:52:17.740Z,14.80
2019-03-06T13:54:49.230Z,14.80
2019-03-06T13:57:18.501Z,14.70
2019-03-06T13:59:48.181Z,14.60
2019-03-06T14:02:17.826Z,14.50
2019-03-06T14:04:47.365Z,14.60
2019-03-06T14:07:17.037Z,14.60
2019-03-06T14:09:46.534Z,14.50
2019-03-06T14:12:16.132Z,14.50
2019-03-06T14:14:45.800Z,14.50
2019-03-06T14:17:15.312Z,14.60
2019-03-06T14:19:45.279Z,14.50
2019-03-06T14:22:14.824Z,14.60
2019-03-06T14:24:44.382Z,14.60
2019-03-06T14:27:14.353Z,14.50
2019-03-06T14:29:43.847Z,14.40
2019-03-06T14:32:15.063Z,14.20
2019-03-06T14:34:44.836Z,14.30
2019-03-06T14:37:14.348Z,14.20
2019-03-06T14:39:43.889Z,14.10
2019-03-06T14:42:13.488Z,14.00
2019-03-06T14:44:42.965Z,13.90
2019-03-06T14:47:15.136Z,14.00
2019-03-06T14:49:44.774Z,14.10
2019-03-06T14:52:14.313Z,14.00
2019-03-06T14:54:44.056Z,14.10
2019-03-06T14:57:15.228Z,14.00
2019-03-06T14:59:46.864Z,14.10
2019-03-06T15:02:16.394Z,14.10
2019-03-06T15:04:45.857Z,14.10
2019-03-06T15:07:15.380Z,14.20
2019-03-06T15:09:44.923Z,14.10
2019-03-06T15:12:14.439Z,14.10
2019-03-06T15:14:44.208Z,14.10
2019-03-06T15:17:13.782Z,14.00
2019-03-06T15:19:43.283Z,14.00
2019-03-06T15:22:12.795Z,14.00
2019-03-06T15:24:42.254Z,13.90
2019-03-06T15:27:11.759Z,13.80
2019-03-06T15:29:41.583Z,13.70
2019-03-06T15:32:11.902Z,13.50
2019-03-06T15:34:41.575Z,13.40
2019-03-06T15:37:11.302Z,13.30
2019-03-06T15:39:46.715Z,13.10
2019-03-06T15:42:16.326Z,13.10
2019-03-06T15:44:45.868Z,12.90
2019-03-06T15:47:15.525Z,12.60
2019-03-06T15:49:46.483Z,12.50
2019-03-06T15:52:16.058Z,12.40
2019-03-06T15:54:45.937Z,12.30
2019-03-06T15:57:15.418Z,12.30
2019-03-06T15:59:46.572Z,12.20
2019-03-06T16:02:16.123Z,12.30
2019-03-06T16:04:45.810Z,12.20
2019-03-06T16:07:15.267Z,12.20
2019-03-06T16:09:46.427Z,12.20
2019-03-06T16:12:16.427Z,12.20
2019-03-06T16:14:51.725Z,12.20
2019-03-06T16:17:21.464Z,12.20
2019-03-06T16:19:52.914Z,12.20
2019-03-06T16:22:22.330Z,12.20
2019-03-06T16:24:52.299Z,12.20
2019-03-06T16:27:21.939Z,12.20
2019-03-06T16:29:51.362Z,12.20
2019-03-06T16:32:20.933Z,12.20
2019-03-06T16:34:50.827Z,12.20
2019-03-06T16:37:20.305Z,12.20
2019-03-06T16:39:51.159Z,12.20
2019-03-06T16:42:21.047Z,12.10
2019-03-06T16:44:50.770Z,12.20
2019-03-06T16:47:20.607Z,12.20
2019-03-06T16:49:50.121Z,12.20
2019-03-06T16:52:19.908Z,12.30
2019-03-06T16:54:49.376Z,12.30
2019-03-06T16:57:18.879Z,12.30
2019-03-06T16:59:48.779Z,12.40
2019-03-06T17:02:18.248Z,12.30
2019-03-06T17:04:47.853Z,12.30
2019-03-06T17:07:17.394Z,12.30
2019-03-06T17:09:46.888Z,12.30
2019-03-06T17:12:18.688Z,12.30
2019-03-06T17:14:48.603Z,12.30
2019-03-06T17:17:18.339Z,12.20
2019-03-06T17:19:47.834Z,12.20
2019-03-06T17:22:18.279Z,12.20
2019-03-06T17:24:47.894Z,12.30
2019-03-06T17:27:17.503Z,12.30
2019-03-06T17:29:47.096Z,12.30
2019-03-06T17:32:16.737Z,12.20
2019-03-06T17:34:46.331Z,12.20
2019-03-06T17:37:16.048Z,12.10
2019-03-06T17:39:45.602Z,12.20
2019-03-06T17:42:16.875Z,12.20
2019-03-06T17:44:46.386Z,12.20
2019-03-06T17:47:15.894Z,12.20
2019-03-06T17:49:45.432Z,12.20
2019-03-06T17:52:14.983Z,12.20
2019-03-06T17:54:44.517Z,12.20
2019-03-06T17:57:14.398Z,12.20
2019-03-06T17:59:43.887Z,12.10
2019-03-06T18:02:13.479Z,12.10
2019-03-06T18:04:43.012Z,12.00
2019-03-06T18:07:12.556Z,12.00
2019-03-06T18:09:42.076Z,12.00
2019-03-06T18:12:11.684Z,11.90
2019-03-06T18:14:41.314Z,11.90
2019-03-06T18:17:10.956Z,11.90
2019-03-06T18:19:40.485Z,11.90
2019-03-06T18:22:10.007Z,11.80
2019-03-06T18:24:39.887Z,11.80
2019-03-06T18:27:09.395Z,11.80
2019-03-06T18:29:38.996Z,11.70
2019-03-06T18:32:08.531Z,11.70
2019-03-06T18:34:39.267Z,11.60
2019-03-06T18:37:08.772Z,11.60
2019-03-06T18:39:38.715Z,11.50
2019-03-06T18:42:08.290Z,11.50
2019-03-06T18:44:37.828Z,11.40
2019-03-06T18:47:08.551Z,11.40
2019-03-06T18:49:38.146Z,11.30
2019-03-06T18:52:07.647Z,11.30
2019-03-06T18:54:37.220Z,11.20
2019-03-06T18:57:06.763Z,11.20
2019-03-06T18:59:36.277Z,11.20
2019-03-06T19:02:06.224Z,11.10
2019-03-06T19:04:35.816Z,11.00
2019-03-06T19:07:05.634Z,10.90
2019-03-06T19:09:35.183Z,10.80
2019-03-06T19:12:04.751Z,10.80
2019-03-06T19:14:34.227Z,10.80
2019-03-06T19:17:03.764Z,10.70
2019-03-06T19:19:33.370Z,10.60
2019-03-06T19:22:03.790Z,10.60
2019-03-06T19:24:33.449Z,10.60
2019-03-06T19:27:03.014Z,10.60
2019-03-06T19:29:32.484Z,10.60
2019-03-06T19:32:02.006Z,10.60
2019-03-06T19:34:31.575Z,10.60
2019-03-06T19:37:01.246Z,10.60
2019-03-06T19:39:30.747Z,10.50
2019-03-06T19:42:00.273Z,10.60
2019-03-06T19:44:29.796Z,10.50
2019-03-06T19:46:59.511Z,10.60
2019-03-06T19:49:29.063Z,10.60
2019-03-06T19:51:58.989Z,10.50
2019-03-06T19:54:28.492Z,10.50
2019-03-06T19:56:57.979Z,10.50
2019-03-06T19:59:27.410Z,10.60
2019-03-06T20:01:58.073Z,10.60
2019-03-06T20:04:27.539Z,10.60
2019-03-06T20:06:57.280Z,10.60
2019-03-06T20:09:29.220Z,10.60
2019-03-06T20:11:58.824Z,10.60
2019-03-06T20:14:28.309Z,10.60
2019-03-06T20:16:57.905Z,10.60
2019-03-06T20:19:27.467Z,10.70
2019-03-06T20:21:57.867Z,10.70
2019-03-06T20:24:27.648Z,10.70
2019-03-06T20:26:58.511Z,10.60
2019-03-06T20:29:37.252Z,10.60
2019-03-06T20:32:13.914Z,10.60
2019-03-06T20:34:44.960Z,10.60
2019-03-06T20:37:16.757Z,10.60
2019-03-06T20:42:42.023Z,10.50
2019-03-06T20:45:11.651Z,10.50
2019-03-06T20:47:41.066Z,10.50
2019-03-06T20:50:10.991Z,10.40
2019-03-06T20:52:41.841Z,10.40
2019-03-06T20:55:11.590Z,10.40
2019-03-06T20:57:41.189Z,10.30
2019-03-06T21:00:14.631Z,10.30
2019-03-06T21:02:44.101Z,10.30
2019-03-06T21:05:13.625Z,10.20
2019-03-06T21:07:47.486Z,10.20
2019-03-06T21:10:17.110Z,10.20
2019-03-06T21:12:46.688Z,10.20
2019-03-06T21:15:17.340Z,10.20
2019-03-06T21:17:46.877Z,10.20
2019-03-06T21:20:18.020Z,10.30
2019-03-06T21:22:47.624Z,10.30
2019-03-06T21:25:18.531Z,10.30
2019-03-06T21:27:48.128Z,10.30
2019-03-06T21:30:24.460Z,10.20
2019-03-06T21:32:54.019Z,10.30
2019-03-06T21:35:23.498Z,10.30
2019-03-06T21:37:52.946Z,10.30
2019-03-06T21:40:22.480Z,10.30
2019-03-06T21:42:52.089Z,10.20
2019-03-06T21:45:21.647Z,10.20
2019-03-06T21:47:51.301Z,10.30
2019-03-06T21:50:20.812Z,10.30
2019-03-06T21:52:53.463Z,10.30
2019-03-06T21:55:23.050Z,10.30
2019-03-06T21:57:52.812Z,10.30
2019-03-06T22:00:22.668Z,10.30
2019-03-06T22:02:52.453Z,10.30
2019-03-06T22:05:22.005Z,10.30
2019-03-06T22:07:51.868Z,10.30
2019-03-06T22:10:21.438Z,10.30
2019-03-06T22:12:55.352Z,10.30
2019-03-06T22:15:25.117Z,10.30
2019-03-06T22:17:54.672Z,10.30
2019-03-06T22:20:24.286Z,10.30
2019-03-06T22:22:53.951Z,10.30
2019-03-06T22:25:23.441Z,10.40
2019-03-06T22:27:53.250Z,10.30
2019-03-06T22:30:23.156Z,10.30
2019-03-06T22:32:52.873Z,10.40
2019-03-06T22:35:22.364Z,10.40
2019-03-06T22:37:51.949Z,10.30
2019-03-06T22:40:21.447Z,10.40
2019-03-06T22:42:51.880Z,10.30
2019-03-06T22:45:21.694Z,10.40
2019-03-06T22:47:51.366Z,10.40
2019-03-06T22:50:20.875Z,10.30
2019-03-06T22:53:09.737Z,10.30
2019-03-06T22:55:39.247Z,10.30
2019-03-06T22:58:09.731Z,10.40
2019-03-06T23:01:23.284Z,10.40
2019-03-06T23:03:53.606Z,10.40
2019-03-06T23:06:24.296Z,10.40
2019-03-06T23:08:54.328Z,10.30
2019-03-06T23:11:24.410Z,10.30
2019-03-06T23:13:54.169Z,10.30
2019-03-06T23:16:23.754Z,10.30
2019-03-06T23:18:53.359Z,10.20
2019-03-06T23:21:23.094Z,10.30
2019-03-06T23:23:52.617Z,10.30
2019-03-06T23:26:22.091Z,10.20
2019-03-06T23:28:51.553Z,10.20
2019-03-06T23:31:21.092Z,10.20
2019-03-06T23:33:50.604Z,10.20
2019-03-06T23:36:20.097Z,10.20
2019-03-06T23:38:49.660Z,10.20
2019-03-06T23:41:19.159Z,10.30
2019-03-06T23:43:48.625Z,10.30
2019-03-06T23:46:18.082Z,10.30
2019-03-06T23:48:47.909Z,10.20
2019-03-06T23:51:31.615Z,10.20
2019-03-06T23:54:01.132Z,10.20
2019-03-06T23:56:30.638Z,10.20
2019-03-06T23:59:00.247Z,10.20
